createdAt,value
2022-12-28T00:00:57.866Z,26.50
2022-12-28T00:03:29.073Z,29.85
2022-12-28T00:05:58.355Z,25.13
2022-12-28T00:08:27.502Z,22.83
2022-12-28T00:11:07.865Z,28.27
2022-12-28T00:13:39.984Z,28.13
2022-12-28T00:16:14.600Z,29.13
2022-12-28T00:18:43.951Z,25.95
2022-12-28T00:21:12.999Z,26.90
2022-12-28T00:23:42.421Z,25.23
2022-12-28T00:26:14.322Z,22.95
2022-12-28T00:28:43.826Z,26.08
2022-12-28T00:31:14.862Z,25.42
2022-12-28T00:33:44.319Z,26.38
2022-12-28T00:36:16.117Z,25.20
2022-12-28T00:38:46.221Z,24.33
2022-12-28T00:41:15.529Z,25.25
2022-12-28T00:43:46.205Z,25.27
2022-12-28T00:46:17.929Z,25.70
2022-12-28T00:48:47.093Z,25.73
2022-12-28T00:51:19.243Z,23.35
2022-12-28T00:53:48.467Z,24.02
2022-12-28T00:56:20.802Z,22.90
2022-12-28T00:58:50.931Z,24.52
2022-12-28T01:01:24.776Z,21.25
2022-12-28T01:03:56.443Z,22.70
2022-12-28T01:06:28.264Z,24.23
2022-12-28T01:08:57.531Z,20.90
2022-12-28T01:11:31.703Z,21.92
2022-12-28T01:14:02.908Z,21.55
2022-12-28T01:16:36.062Z,24.35
2022-12-28T01:19:08.194Z,24.25
2022-12-28T01:21:37.886Z,23.90
2022-12-28T01:24:08.771Z,24.55
2022-12-28T01:26:38.058Z,24.02
2022-12-28T01:29:07.618Z,26.02
2022-12-28T01:31:38.240Z,25.48
2022-12-28T01:34:07.402Z,22.48
2022-12-28T01:36:38.473Z,27.13
2022-12-28T01:39:08.489Z,26.40
2022-12-28T01:41:41.074Z,22.20
2022-12-28T01:44:44.472Z,22.27
2022-12-28T01:47:23.441Z,24.67
2022-12-28T01:50:01.647Z,22.70
2022-12-28T01:52:37.512Z,24.20
2022-12-28T01:55:13.030Z,24.17
2022-12-28T01:57:47.655Z,19.77
2022-12-28T02:00:19.051Z,23.25
2022-12-28T02:02:56.071Z,22.55
2022-12-28T02:05:30.122Z,21.75
2022-12-28T02:08:05.649Z,26.15
2022-12-28T02:10:41.064Z,24.52
2022-12-28T02:13:17.268Z,20.27
2022-12-28T02:15:49.036Z,27.00
2022-12-28T02:18:22.211Z,25.20
2022-12-28T02:21:22.491Z,18.08
2022-12-28T02:24:36.178Z,23.98
2022-12-28T02:27:16.349Z,20.77
2022-12-28T02:30:06.187Z,24.48
2022-12-28T02:32:56.468Z,23.05
2022-12-28T02:35:35.465Z,23.05
2022-12-28T02:38:12.481Z,26.85
2022-12-28T02:40:48.248Z,24.75
2022-12-28T02:43:17.686Z,28.38
2022-12-28T02:46:06.562Z,29.55
2022-12-28T02:49:00.573Z,26.42
2022-12-28T02:51:56.781Z,19.20
2022-12-28T02:55:11.589Z,24.17
2022-12-28T03:01:01.891Z,21.73
2022-12-28T03:03:40.596Z,18.08
2022-12-28T03:06:35.293Z,21.23
2022-12-28T03:09:17.544Z,38.10
2022-12-28T03:11:55.564Z,77.38
2022-12-28T03:14:36.503Z,55.20
2022-12-28T03:20:18.285Z,46.95
2022-12-28T03:23:05.658Z,46.63
2022-12-28T03:25:59.010Z,74.75
2022-12-28T03:28:53.788Z,57.05
2022-12-28T03:31:26.191Z,73.53
2022-12-28T03:34:07.742Z,49.65
2022-12-28T03:36:49.405Z,35.00
2022-12-28T03:39:32.803Z,21.38
2022-12-28T03:42:30.576Z,18.67
2022-12-28T03:45:08.037Z,17.52
2022-12-28T03:47:41.253Z,16.67
2022-12-28T03:50:13.151Z,18.55
2022-12-28T03:52:42.542Z,18.15
2022-12-28T03:55:14.992Z,17.70
2022-12-28T03:57:44.809Z,18.80
2022-12-28T04:00:21.164Z,17.33
2022-12-28T04:02:52.846Z,14.77
2022-12-28T04:05:25.806Z,15.23
2022-12-28T04:07:55.427Z,14.80
2022-12-28T04:10:25.545Z,15.73
2022-12-28T04:12:57.675Z,15.20
2022-12-28T04:16:00.758Z,15.63
2022-12-28T04:18:32.716Z,16.08
2022-12-28T04:21:03.738Z,15.10
2022-12-28T04:23:33.578Z,16.83
2022-12-28T04:26:18.094Z,13.93
2022-12-28T04:28:48.888Z,17.60
2022-12-28T04:31:25.126Z,16.30
2022-12-28T04:34:14.900Z,17.15
2022-12-28T04:36:53.916Z,15.13
2022-12-28T04:39:24.784Z,14.95
2022-12-28T04:41:53.860Z,17.80
2022-12-28T04:44:23.000Z,22.90
2022-12-28T04:46:52.117Z,17.67
2022-12-28T04:49:21.259Z,18.10
2022-12-28T04:51:52.069Z,22.20
2022-12-28T04:54:21.629Z,19.40
2022-12-28T04:56:50.808Z,17.77
2022-12-28T04:59:20.126Z,20.52
2022-12-28T05:01:49.370Z,19.10
2022-12-28T05:04:18.493Z,17.92
2022-12-28T05:06:47.665Z,20.35
2022-12-28T05:09:20.696Z,20.13
2022-12-28T05:11:49.944Z,13.80
2022-12-28T05:14:19.082Z,16.23
2022-12-28T05:16:52.285Z,12.05
2022-12-28T05:19:21.433Z,22.67
2022-12-28T05:21:50.623Z,22.70
2022-12-28T05:24:21.153Z,20.90
2022-12-28T05:26:50.243Z,24.95
2022-12-28T05:29:19.546Z,21.83
2022-12-28T05:31:48.796Z,19.05
2022-12-28T05:34:17.863Z,25.27
2022-12-28T05:36:46.945Z,21.95
2022-12-28T05:39:16.198Z,19.88
2022-12-28T05:41:47.266Z,20.70
2022-12-28T05:44:16.575Z,20.67
2022-12-28T05:46:45.836Z,19.70
2022-12-28T05:49:15.066Z,27.60
2022-12-28T05:51:44.321Z,22.55
2022-12-28T05:54:13.450Z,19.88
2022-12-28T05:56:42.677Z,21.33
2022-12-28T05:59:13.735Z,22.88
2022-12-28T06:01:46.084Z,26.35
2022-12-28T06:04:17.977Z,22.67
2022-12-28T06:06:48.575Z,28.02
2022-12-28T06:09:18.540Z,21.63
2022-12-28T06:11:48.102Z,24.05
2022-12-28T06:14:18.678Z,23.42
2022-12-28T06:16:47.837Z,19.73
2022-12-28T06:19:18.283Z,23.10
2022-12-28T06:21:47.889Z,20.52
2022-12-28T06:24:19.082Z,21.98
2022-12-28T06:26:48.493Z,22.08
2022-12-28T06:29:19.283Z,24.55
2022-12-28T06:31:51.234Z,20.58
2022-12-28T06:34:20.477Z,22.98
2022-12-28T06:36:52.674Z,21.20
2022-12-28T06:39:21.727Z,21.63
2022-12-28T06:41:51.242Z,26.38
2022-12-28T06:44:21.730Z,24.35
2022-12-28T06:46:50.904Z,24.90
2022-12-28T06:49:20.240Z,26.63
2022-12-28T06:51:49.490Z,25.27
2022-12-28T06:54:18.547Z,26.52
2022-12-28T06:56:47.862Z,29.23
2022-12-28T06:59:16.994Z,25.10
2022-12-28T07:01:47.742Z,26.20
2022-12-28T07:04:17.375Z,31.30
2022-12-28T07:06:46.607Z,25.85
2022-12-28T07:09:17.288Z,25.70
2022-12-28T07:11:47.212Z,30.90
2022-12-28T07:14:16.448Z,30.85
2022-12-28T07:16:45.540Z,35.63
2022-12-28T07:19:16.244Z,37.15
2022-12-28T07:21:45.345Z,33.33
2022-12-28T07:24:14.852Z,28.05
2022-12-28T07:26:44.701Z,29.20
2022-12-28T07:29:13.849Z,29.48
2022-12-28T07:31:45.643Z,36.97
2022-12-28T07:34:17.127Z,33.88
2022-12-28T07:36:46.346Z,35.38
2022-12-28T07:39:15.599Z,35.17
2022-12-28T07:41:44.743Z,33.13
2022-12-28T07:44:13.816Z,38.83
2022-12-28T07:46:43.819Z,31.00
2022-12-28T07:49:13.084Z,25.45
2022-12-28T07:51:43.674Z,25.90
2022-12-28T07:54:13.248Z,22.08
2022-12-28T07:59:13.365Z,26.10
2022-12-28T08:01:42.580Z,17.73
2022-12-28T08:04:16.056Z,18.65
2022-12-28T08:06:47.885Z,18.17
2022-12-28T08:09:17.303Z,16.90
2022-12-28T08:11:49.987Z,15.38
2022-12-28T08:14:19.406Z,19.10
2022-12-28T08:16:48.627Z,20.48
2022-12-28T08:19:18.026Z,18.20
2022-12-28T08:21:48.687Z,14.15
2022-12-28T08:24:20.443Z,19.50
2022-12-28T08:26:50.886Z,20.58
2022-12-28T08:29:23.059Z,19.08
2022-12-28T08:31:52.989Z,18.13
2022-12-28T08:34:26.841Z,18.75
2022-12-28T08:36:58.212Z,18.48
2022-12-28T08:39:27.632Z,17.70
2022-12-28T08:41:57.383Z,16.77
2022-12-28T08:44:26.661Z,15.73
2022-12-28T08:46:58.195Z,17.63
2022-12-28T08:49:27.483Z,17.17
2022-12-28T08:51:58.370Z,19.45
2022-12-28T08:54:27.477Z,22.90
2022-12-28T08:56:56.629Z,18.90
2022-12-28T08:59:25.819Z,19.00
2022-12-28T09:01:55.166Z,18.40
2022-12-28T09:04:24.406Z,16.98
2022-12-28T09:06:53.722Z,15.40
2022-12-28T09:09:24.463Z,18.90
2022-12-28T09:11:53.524Z,22.38
2022-12-28T09:14:24.517Z,15.73
2022-12-28T09:16:54.972Z,17.38
2022-12-28T09:19:24.774Z,23.17
2022-12-28T09:21:56.423Z,19.40
2022-12-28T09:24:27.646Z,17.27
2022-12-28T09:27:02.475Z,17.42
2022-12-28T09:29:31.705Z,21.02
2022-12-28T09:32:01.980Z,15.52
2022-12-28T09:34:36.621Z,15.00
2022-12-28T09:37:07.876Z,16.00
2022-12-28T09:39:38.480Z,17.13
2022-12-28T09:42:15.893Z,17.23
2022-12-28T09:44:56.697Z,18.83
2022-12-28T09:47:41.154Z,15.48
2022-12-28T09:50:33.041Z,17.60
2022-12-28T09:53:26.795Z,14.40
2022-12-28T09:56:04.098Z,16.50
2022-12-28T10:01:09.124Z,15.52
2022-12-28T10:03:41.542Z,17.90
2022-12-28T10:06:15.255Z,21.20
2022-12-28T10:08:49.205Z,18.02
2022-12-28T10:11:22.767Z,19.70
2022-12-28T10:13:58.434Z,20.73
2022-12-28T10:16:33.771Z,18.17
2022-12-28T10:19:03.663Z,24.75
2022-12-28T10:21:34.949Z,19.98
2022-12-28T10:27:03.676Z,19.15
2022-12-28T10:29:35.651Z,19.35
2022-12-28T10:32:09.526Z,16.88
2022-12-28T10:34:54.221Z,16.55
2022-12-28T10:37:27.233Z,18.70
2022-12-28T10:40:04.290Z,14.10
2022-12-28T10:45:20.610Z,17.77
2022-12-28T10:47:53.424Z,19.20
2022-12-28T10:50:48.514Z,15.85
2022-12-28T10:53:30.701Z,14.23
2022-12-28T10:56:18.103Z,19.48
2022-12-28T10:58:50.849Z,22.90
2022-12-28T11:01:26.936Z,20.45
2022-12-28T11:04:06.539Z,21.47
2022-12-28T11:06:37.933Z,18.98
2022-12-28T11:09:17.480Z,24.05
2022-12-28T11:11:49.214Z,23.42
2022-12-28T11:14:31.953Z,18.23
2022-12-28T11:17:17.592Z,14.80
2022-12-28T11:19:48.196Z,14.75
2022-12-28T11:22:23.644Z,16.33
2022-12-28T11:24:52.966Z,19.48
2022-12-28T11:27:25.096Z,15.85
2022-12-28T11:29:57.466Z,16.00
2022-12-28T11:32:32.349Z,17.48
2022-12-28T11:35:02.513Z,17.23
2022-12-28T11:37:31.776Z,18.60
2022-12-28T11:40:02.063Z,16.27
2022-12-28T11:42:56.513Z,17.15
2022-12-28T11:45:56.341Z,17.60
2022-12-28T11:48:47.728Z,15.13
2022-12-28T11:51:19.508Z,19.58
2022-12-28T11:53:59.160Z,15.57
2022-12-28T11:56:50.383Z,16.30
2022-12-28T11:59:26.264Z,17.63
2022-12-28T12:01:59.276Z,15.65
2022-12-28T12:04:41.791Z,16.42
2022-12-28T12:07:48.622Z,14.25
2022-12-28T12:10:37.193Z,17.02
2022-12-28T12:13:44.424Z,12.90
2022-12-28T12:16:27.917Z,10.38
2022-12-28T12:19:03.143Z,16.02
2022-12-28T12:21:37.535Z,14.10
2022-12-28T12:24:27.078Z,13.57
2022-12-28T12:27:06.074Z,9.88
2022-12-28T12:29:42.482Z,14.10
2022-12-28T12:32:22.441Z,9.63
2022-12-28T12:34:56.111Z,9.80
2022-12-28T12:37:48.307Z,8.77
2022-12-28T12:40:57.915Z,9.48
2022-12-28T12:43:57.787Z,11.07
2022-12-28T12:47:17.120Z,16.85
2022-12-28T12:50:16.522Z,8.63
2022-12-28T12:53:06.134Z,8.52
2022-12-28T12:55:57.819Z,11.27
2022-12-28T12:58:34.768Z,9.48
2022-12-28T13:01:29.439Z,9.10
2022-12-28T13:04:06.806Z,8.63
2022-12-28T13:06:41.658Z,12.93
2022-12-28T13:09:18.246Z,8.40
2022-12-28T13:11:48.449Z,10.60
2022-12-28T13:14:20.976Z,9.90
2022-12-28T13:16:54.578Z,10.25
2022-12-28T13:19:26.527Z,10.60
2022-12-28T13:21:59.239Z,9.02
2022-12-28T13:24:30.816Z,8.05
2022-12-28T13:27:02.664Z,11.00
2022-12-28T13:29:40.650Z,8.38
2022-12-28T13:32:26.270Z,15.95
2022-12-28T13:34:55.326Z,11.27
2022-12-28T13:37:26.140Z,10.02
2022-12-28T13:40:11.317Z,10.55
2022-12-28T13:42:52.677Z,8.95
2022-12-28T13:45:23.154Z,7.13
2022-12-28T13:47:54.559Z,10.35
2022-12-28T13:50:28.009Z,9.48
2022-12-28T13:53:03.915Z,9.38
2022-12-28T13:55:38.752Z,7.50
2022-12-28T13:58:13.327Z,8.52
2022-12-28T14:00:45.580Z,9.60
2022-12-28T14:03:16.714Z,8.73
2022-12-28T14:05:51.834Z,7.95
2022-12-28T14:08:23.704Z,9.00
2022-12-28T14:10:53.534Z,8.40
2022-12-28T14:13:23.938Z,10.02
2022-12-28T14:15:56.265Z,12.10
2022-12-28T14:18:26.979Z,9.27
2022-12-28T14:20:58.106Z,9.18
2022-12-28T14:23:30.858Z,9.68
2022-12-28T14:26:03.804Z,9.75
2022-12-28T14:28:38.114Z,9.23
2022-12-28T14:31:10.156Z,10.40
2022-12-28T14:33:51.699Z,8.68
2022-12-28T14:36:24.552Z,9.00
2022-12-28T14:39:04.249Z,11.57
2022-12-28T14:41:40.520Z,6.95
2022-12-28T14:44:17.755Z,9.70
2022-12-28T14:46:47.115Z,8.43
2022-12-28T14:49:37.771Z,9.65
2022-12-28T14:52:43.449Z,10.85
2022-12-28T14:55:33.384Z,11.77
2022-12-28T14:58:09.006Z,13.00
2022-12-28T15:00:38.721Z,16.77
2022-12-28T15:03:23.910Z,10.65
2022-12-28T15:05:55.096Z,12.20
2022-12-28T15:08:27.425Z,7.70
2022-12-28T15:11:00.185Z,10.48
2022-12-28T15:13:29.410Z,9.88
2022-12-28T15:16:01.138Z,13.70
2022-12-28T15:18:31.715Z,14.52
2022-12-28T15:21:06.592Z,9.85
2022-12-28T15:23:36.005Z,11.75
2022-12-28T15:26:09.648Z,12.50
2022-12-28T15:28:41.877Z,12.50
2022-12-28T15:31:14.284Z,22.52
2022-12-28T15:33:43.632Z,19.77
2022-12-28T15:36:17.881Z,18.45
2022-12-28T15:38:48.722Z,21.92
2022-12-28T15:41:37.637Z,19.98
2022-12-28T15:44:07.264Z,15.75
2022-12-28T15:46:36.609Z,15.32
2022-12-28T15:49:07.175Z,7.72
2022-12-28T15:51:36.493Z,9.55
2022-12-28T15:54:09.681Z,14.73
2022-12-28T15:56:42.783Z,13.98
2022-12-28T15:59:15.297Z,29.50
2022-12-28T16:01:46.183Z,25.63
2022-12-28T16:04:16.144Z,32.00
2022-12-28T16:06:45.969Z,40.78
2022-12-28T16:09:16.000Z,26.55
2022-12-28T16:11:54.695Z,24.80
2022-12-28T16:14:24.544Z,25.15
2022-12-28T16:16:53.894Z,24.17
2022-12-28T16:19:23.392Z,30.23
2022-12-28T16:21:53.264Z,34.15
2022-12-28T16:24:22.556Z,35.05
2022-12-28T16:26:53.040Z,58.60
2022-12-28T16:29:22.497Z,60.75
2022-12-28T16:31:53.067Z,53.50
2022-12-28T16:34:24.451Z,36.67
2022-12-28T16:36:57.201Z,32.50
2022-12-28T16:39:28.681Z,31.17
2022-12-28T16:41:59.595Z,38.17
2022-12-28T16:44:29.550Z,29.90
2022-12-28T16:46:59.729Z,22.58
2022-12-28T16:49:30.771Z,20.20
2022-12-28T16:52:00.651Z,22.40
2022-12-28T16:54:29.907Z,15.27
2022-12-28T16:57:00.464Z,14.43
2022-12-28T16:59:30.885Z,15.25
2022-12-28T17:02:00.497Z,18.90
2022-12-28T17:04:29.687Z,16.88
2022-12-28T17:06:59.696Z,54.60
2022-12-28T17:09:28.895Z,37.08
2022-12-28T17:12:00.613Z,28.95
2022-12-28T17:14:37.470Z,28.40
2022-12-28T17:19:37.189Z,41.05
2022-12-28T17:22:06.512Z,48.53
2022-12-28T17:24:35.734Z,31.55
2022-12-28T17:27:09.054Z,30.85
2022-12-28T17:29:41.029Z,19.50
2022-12-28T17:32:10.260Z,17.02
2022-12-28T17:34:39.467Z,15.82
2022-12-28T17:37:08.665Z,18.05
2022-12-28T17:39:40.660Z,20.95
2022-12-28T17:42:12.030Z,27.77
2022-12-28T17:44:41.357Z,22.60
2022-12-28T17:47:10.526Z,19.45
2022-12-28T17:49:39.889Z,20.50
2022-12-28T17:52:10.014Z,25.48
2022-12-28T17:54:39.225Z,29.52
2022-12-28T17:57:09.920Z,41.35
2022-12-28T17:59:40.632Z,34.03
2022-12-28T18:02:12.894Z,42.92
2022-12-28T18:04:42.575Z,32.53
2022-12-28T18:07:12.238Z,43.40
2022-12-28T18:09:41.510Z,45.63
2022-12-28T18:12:10.931Z,26.17
2022-12-28T18:14:41.795Z,21.70
2022-12-28T18:17:11.111Z,20.77
2022-12-28T18:19:40.521Z,26.00
2022-12-28T18:22:09.934Z,23.75
2022-12-28T18:24:39.607Z,19.35
2022-12-28T18:27:08.984Z,17.80
2022-12-28T18:29:43.130Z,21.08
2022-12-28T18:32:12.706Z,17.10
2022-12-28T18:34:42.475Z,16.48
2022-12-28T18:37:11.820Z,13.73
2022-12-28T18:39:41.054Z,16.05
2022-12-28T18:42:10.526Z,16.35
2022-12-28T18:44:41.585Z,18.08
2022-12-28T18:47:13.320Z,16.92
2022-12-28T18:49:47.099Z,19.25
2022-12-28T18:52:18.587Z,21.75
2022-12-28T18:54:49.044Z,25.17
2022-12-28T18:57:18.862Z,23.58
2022-12-28T18:59:50.599Z,24.60
2022-12-28T19:02:22.488Z,16.75
2022-12-28T19:04:56.731Z,18.70
2022-12-28T19:07:26.668Z,21.27
2022-12-28T19:10:16.045Z,21.75
2022-12-28T19:12:45.536Z,22.40
2022-12-28T19:15:16.229Z,17.38
2022-12-28T19:17:45.735Z,19.55
2022-12-28T19:20:15.631Z,19.38
2022-12-28T19:22:45.203Z,22.60
2022-12-28T19:25:14.623Z,16.27
2022-12-28T19:27:44.281Z,27.00
2022-12-28T19:30:16.255Z,18.98
2022-12-28T19:32:45.519Z,31.42
2022-12-28T19:35:15.956Z,31.27
2022-12-28T19:37:46.352Z,27.42
2022-12-28T19:40:16.204Z,24.23
2022-12-28T19:42:45.691Z,26.77
2022-12-28T19:45:18.352Z,27.58
2022-12-28T19:47:47.660Z,33.15
2022-12-28T19:50:17.557Z,33.53
2022-12-28T19:52:47.341Z,34.75
2022-12-28T19:55:16.899Z,32.40
2022-12-28T19:57:46.435Z,32.72
2022-12-28T20:00:18.559Z,32.42
2022-12-28T20:02:50.479Z,42.95
2022-12-28T20:05:19.888Z,35.65
2022-12-28T20:07:49.712Z,35.13
2022-12-28T20:10:19.162Z,35.65
2022-12-28T20:12:48.729Z,47.65
2022-12-28T20:15:22.806Z,45.67
2022-12-28T20:17:52.307Z,41.05
2022-12-28T20:20:26.731Z,39.72
2022-12-28T20:22:57.001Z,42.38
2022-12-28T20:25:26.272Z,43.22
2022-12-28T20:27:59.299Z,36.80
2022-12-28T20:30:32.287Z,41.13
2022-12-28T20:33:01.851Z,38.50
2022-12-28T20:35:31.159Z,40.85
2022-12-28T20:38:03.425Z,41.10
2022-12-28T20:40:33.031Z,39.92
2022-12-28T20:43:19.697Z,38.30
2022-12-28T20:45:54.187Z,39.50
2022-12-28T20:48:23.771Z,33.85
2022-12-28T20:50:57.481Z,37.30
2022-12-28T20:53:27.447Z,34.40
2022-12-28T20:56:06.735Z,30.08
2022-12-28T20:58:36.577Z,30.83
2022-12-28T21:01:09.632Z,32.67
2022-12-28T21:03:39.176Z,30.10
2022-12-28T21:06:09.285Z,35.97
2022-12-28T21:08:38.584Z,34.60
2022-12-28T21:11:08.114Z,30.48
2022-12-28T21:13:43.759Z,39.00
2022-12-28T21:16:19.102Z,41.30
2022-12-28T21:18:50.643Z,30.58
2022-12-28T21:21:22.199Z,36.30
2022-12-28T21:23:52.536Z,30.95
2022-12-28T21:26:22.911Z,29.33
2022-12-28T21:28:52.322Z,39.05
2022-12-28T21:31:23.114Z,33.10
2022-12-28T21:33:56.045Z,31.50
2022-12-28T21:36:25.281Z,34.72
2022-12-28T21:38:54.516Z,33.63
2022-12-28T21:41:37.957Z,36.65
2022-12-28T21:44:08.388Z,39.88
2022-12-28T21:46:39.096Z,34.40
2022-12-28T21:49:08.895Z,37.78
2022-12-28T21:51:39.247Z,40.88
2022-12-28T21:54:12.396Z,43.80
2022-12-28T21:56:42.888Z,49.78
2022-12-28T21:59:13.939Z,43.25
2022-12-28T22:02:02.285Z,43.30
2022-12-28T22:04:49.161Z,31.67
2022-12-28T22:07:21.163Z,37.40
2022-12-28T22:10:07.839Z,32.35
2022-12-28T22:12:37.568Z,33.50
2022-12-28T22:15:28.761Z,37.00
2022-12-28T22:18:02.100Z,36.80
2022-12-28T22:20:33.438Z,39.85
2022-12-28T22:23:03.500Z,32.85
2022-12-28T22:25:32.976Z,31.60
2022-12-28T22:28:02.754Z,33.50
2022-12-28T22:30:34.085Z,33.58
2022-12-28T22:33:05.403Z,30.73
2022-12-28T22:35:35.017Z,34.00
2022-12-28T22:38:04.214Z,38.40
2022-12-28T22:40:33.345Z,44.22
2022-12-28T22:43:03.239Z,41.30
2022-12-28T22:45:32.559Z,42.22
2022-12-28T22:48:01.815Z,36.70
2022-12-28T22:50:32.927Z,36.35
2022-12-28T22:53:06.296Z,39.83
2022-12-28T22:55:35.563Z,42.28
2022-12-28T22:58:04.715Z,44.67
2022-12-28T23:00:33.944Z,42.75
2022-12-28T23:03:03.318Z,38.40
2022-12-28T23:05:36.604Z,36.63
2022-12-28T23:08:07.358Z,38.35
2022-12-28T23:10:36.611Z,33.47
2022-12-28T23:13:05.755Z,34.70
2022-12-28T23:15:33.820Z,38.40
2022-12-28T23:18:23.338Z,39.83
2022-12-28T23:21:11.453Z,38.95
2022-12-28T23:23:57.950Z,40.75
2022-12-28T23:26:44.807Z,35.10
2022-12-28T23:29:13.964Z,34.55
2022-12-28T23:31:43.212Z,30.38
2022-12-28T23:34:12.359Z,32.30
2022-12-28T23:36:42.983Z,34.20
2022-12-28T23:39:12.303Z,30.25
2022-12-28T23:41:50.385Z,27.02
2022-12-28T23:44:21.990Z,28.45
2022-12-28T23:46:58.694Z,35.00
2022-12-28T23:49:28.714Z,39.33
2022-12-28T23:51:59.369Z,35.83
2022-12-28T23:54:28.567Z,31.67
2022-12-28T23:56:57.758Z,34.80
2022-12-28T23:59:27.041Z,39.20
